sensor_id;sensor_type;location;lat;lon;timestamp;temperature;humidity
46091;DHT22;31826;53.572;10.170;2023-11-21T00:01:54;8.40;99.90
46091;DHT22;31826;53.572;10.170;2023-11-21T00:04:20;8.30;99.90
46091;DHT22;31826;53.572;10.170;2023-11-21T00:06:46;8.30;99.90
46091;DHT22;31826;53.572;10.170;2023-11-21T00:09:13;8.20;99.90
46091;DHT22;31826;53.572;10.170;2023-11-21T00:11:41;8.20;99.90
46091;DHT22;31826;53.572;10.170;2023-11-21T00:14:07;8.20;99.90
46091;DHT22;31826;53.572;10.170;2023-11-21T00:16:34;8.10;99.90
46091;DHT22;31826;53.572;10.170;2023-11-21T00:18:59;8.10;99.90
46091;DHT22;31826;53.572;10.170;2023-11-21T00:21:25;8.10;99.90
46091;DHT22;31826;53.572;10.170;2023-11-21T00:23:51;8.00;99.90
46091;DHT22;31826;53.572;10.170;2023-11-21T00:26:17;8.00;99.90
46091;DHT22;31826;53.572;10.170;2023-11-21T00:28:42;8.00;99.90
46091;DHT22;31826;53.572;10.170;2023-11-21T00:31:08;8.00;99.90
46091;DHT22;31826;53.572;10.170;2023-11-21T00:33:34;7.90;99.90
46091;DHT22;31826;53.572;10.170;2023-11-21T00:36:00;7.90;99.90
46091;DHT22;31826;53.572;10.170;2023-11-21T00:38:26;7.80;99.90
46091;DHT22;31826;53.572;10.170;2023-11-21T00:40:53;7.80;99.90
46091;DHT22;31826;53.572;10.170;2023-11-21T00:43:22;7.80;99.90
46091;DHT22;31826;53.572;10.170;2023-11-21T00:45:48;7.80;99.90
46091;DHT22;31826;53.572;10.170;2023-11-21T00:48:14;7.80;99.90
46091;DHT22;31826;53.572;10.170;2023-11-21T00:50:40;7.80;99.90
46091;DHT22;31826;53.572;10.170;2023-11-21T00:53:06;7.70;99.90
46091;DHT22;31826;53.572;10.170;2023-11-21T00:55:33;7.70;99.90
46091;DHT22;31826;53.572;10.170;2023-11-21T00:57:59;7.70;99.90
46091;DHT22;31826;53.572;10.170;2023-11-21T01:00:25;7.70;99.90
46091;DHT22;31826;53.572;10.170;2023-11-21T01:02:51;7.70;99.90
46091;DHT22;31826;53.572;10.170;2023-11-21T01:05:17;7.70;99.90
46091;DHT22;31826;53.572;10.170;2023-11-21T01:07:43;7.60;99.90
46091;DHT22;31826;53.572;10.170;2023-11-21T01:10:09;7.60;99.90
46091;DHT22;31826;53.572;10.170;2023-11-21T01:12:36;7.50;99.90
46091;DHT22;31826;53.572;10.170;2023-11-21T01:15:03;7.60;99.90
46091;DHT22;31826;53.572;10.170;2023-11-21T01:17:29;7.50;99.90
46091;DHT22;31826;53.572;10.170;2023-11-21T01:19:55;7.40;99.90
46091;DHT22;31826;53.572;10.170;2023-11-21T01:22:21;7.40;99.90
46091;DHT22;31826;53.572;10.170;2023-11-21T01:24:54;7.40;99.90
46091;DHT22;31826;53.572;10.170;2023-11-21T01:27:20;7.40;99.90
46091;DHT22;31826;53.572;10.170;2023-11-21T01:29:45;7.40;99.90
46091;DHT22;31826;53.572;10.170;2023-11-21T01:32:11;7.30;99.90
46091;DHT22;31826;53.572;10.170;2023-11-21T01:34:37;7.30;99.90
46091;DHT22;31826;53.572;10.170;2023-11-21T01:37:03;7.30;99.90
46091;DHT22;31826;53.572;10.170;2023-11-21T01:39:31;7.30;99.90
46091;DHT22;31826;53.572;10.170;2023-11-21T01:41:57;7.30;99.90
46091;DHT22;31826;53.572;10.170;2023-11-21T01:44:26;7.20;99.90
46091;DHT22;31826;53.572;10.170;2023-11-21T01:46:51;7.20;99.90
46091;DHT22;31826;53.572;10.170;2023-11-21T01:49:17;7.20;99.90
46091;DHT22;31826;53.572;10.170;2023-11-21T01:51:48;7.20;99.90
46091;DHT22;31826;53.572;10.170;2023-11-21T01:54:16;7.10;99.90
46091;DHT22;31826;53.572;10.170;2023-11-21T01:56:45;7.10;99.90
46091;DHT22;31826;53.572;10.170;2023-11-21T01:59:12;7.10;99.90
46091;DHT22;31826;53.572;10.170;2023-11-21T02:01:39;7.10;99.90
46091;DHT22;31826;53.572;10.170;2023-11-21T02:04:05;7.20;99.90
46091;DHT22;31826;53.572;10.170;2023-11-21T02:06:33;7.10;99.90
46091;DHT22;31826;53.572;10.170;2023-11-21T02:08:59;7.20;99.90
46091;DHT22;31826;53.572;10.170;2023-11-21T02:11:25;7.10;99.90
46091;DHT22;31826;53.572;10.170;2023-11-21T02:13:53;7.00;99.90
46091;DHT22;31826;53.572;10.170;2023-11-21T02:16:19;7.10;99.90
46091;DHT22;31826;53.572;10.170;2023-11-21T02:18:47;7.00;99.90
46091;DHT22;31826;53.572;10.170;2023-11-21T02:21:14;7.00;99.90
46091;DHT22;31826;53.572;10.170;2023-11-21T02:23:40;7.00;99.90
46091;DHT22;31826;53.572;10.170;2023-11-21T02:26:10;7.00;99.90
46091;DHT22;31826;53.572;10.170;2023-11-21T02:28:36;7.00;99.90
46091;DHT22;31826;53.572;10.170;2023-11-21T02:31:04;7.00;99.90
46091;DHT22;31826;53.572;10.170;2023-11-21T02:33:30;7.00;99.90
46091;DHT22;31826;53.572;10.170;2023-11-21T02:36:02;6.90;99.90
46091;DHT22;31826;53.572;10.170;2023-11-21T02:38:28;6.90;99.90
46091;DHT22;31826;53.572;10.170;2023-11-21T02:40:54;6.90;99.90
46091;DHT22;31826;53.572;10.170;2023-11-21T02:43:19;6.90;99.90
46091;DHT22;31826;53.572;10.170;2023-11-21T02:45:45;6.90;99.90
46091;DHT22;31826;53.572;10.170;2023-11-21T02:48:11;6.90;99.90
46091;DHT22;31826;53.572;10.170;2023-11-21T02:50:37;6.90;99.90
46091;DHT22;31826;53.572;10.170;2023-11-21T02:53:03;6.90;99.90
46091;DHT22;31826;53.572;10.170;2023-11-21T02:55:31;6.90;99.90
46091;DHT22;31826;53.572;10.170;2023-11-21T02:58:00;6.90;99.90
46091;DHT22;31826;53.572;10.170;2023-11-21T03:00:26;6.90;99.90
46091;DHT22;31826;53.572;10.170;2023-11-21T03:02:52;6.90;99.90
46091;DHT22;31826;53.572;10.170;2023-11-21T03:05:18;6.90;99.90
46091;DHT22;31826;53.572;10.170;2023-11-21T03:07:44;6.80;99.90
46091;DHT22;31826;53.572;10.170;2023-11-21T03:10:10;6.80;99.90
46091;DHT22;31826;53.572;10.170;2023-11-21T03:12:37;6.80;99.90
46091;DHT22;31826;53.572;10.170;2023-11-21T03:15:07;6.80;99.90
46091;DHT22;31826;53.572;10.170;2023-11-21T03:17:34;6.80;99.90
46091;DHT22;31826;53.572;10.170;2023-11-21T03:20:00;6.80;99.90
46091;DHT22;31826;53.572;10.170;2023-11-21T03:22:26;6.80;99.90
46091;DHT22;31826;53.572;10.170;2023-11-21T03:24:52;6.70;99.90
46091;DHT22;31826;53.572;10.170;2023-11-21T03:27:21;6.70;99.90
46091;DHT22;31826;53.572;10.170;2023-11-21T03:29:48;6.70;99.90
46091;DHT22;31826;53.572;10.170;2023-11-21T03:32:14;6.80;99.90
46091;DHT22;31826;53.572;10.170;2023-11-21T03:34:58;6.80;99.90
46091;DHT22;31826;53.572;10.170;2023-11-21T03:37:24;6.80;99.90
46091;DHT22;31826;53.572;10.170;2023-11-21T03:39:50;6.80;99.90
46091;DHT22;31826;53.572;10.170;2023-11-21T03:42:16;6.70;99.90
46091;DHT22;31826;53.572;10.170;2023-11-21T03:44:42;6.70;99.90
46091;DHT22;31826;53.572;10.170;2023-11-21T03:47:08;6.70;99.90
46091;DHT22;31826;53.572;10.170;2023-11-21T03:49:33;6.70;99.90
46091;DHT22;31826;53.572;10.170;2023-11-21T03:51:59;6.70;99.90
46091;DHT22;31826;53.572;10.170;2023-11-21T03:54:25;6.70;99.90
46091;DHT22;31826;53.572;10.170;2023-11-21T03:56:51;6.70;99.90
46091;DHT22;31826;53.572;10.170;2023-11-21T03:59:17;6.60;99.90
46091;DHT22;31826;53.572;10.170;2023-11-21T04:01:43;6.60;99.90
46091;DHT22;31826;53.572;10.170;2023-11-21T04:04:08;6.60;99.90
46091;DHT22;31826;53.572;10.170;2023-11-21T04:06:34;6.60;99.90
46091;DHT22;31826;53.572;10.170;2023-11-21T04:09:01;6.60;99.90
46091;DHT22;31826;53.572;10.170;2023-11-21T04:11:27;6.70;99.90
46091;DHT22;31826;53.572;10.170;2023-11-21T04:13:55;6.70;99.90
46091;DHT22;31826;53.572;10.170;2023-11-21T04:16:21;6.70;99.90
46091;DHT22;31826;53.572;10.170;2023-11-21T04:18:46;6.70;99.90
46091;DHT22;31826;53.572;10.170;2023-11-21T04:21:12;6.70;99.90
46091;DHT22;31826;53.572;10.170;2023-11-21T04:23:38;6.70;99.90
46091;DHT22;31826;53.572;10.170;2023-11-21T04:26:05;6.70;99.90
46091;DHT22;31826;53.572;10.170;2023-11-21T04:28:31;6.70;99.90
46091;DHT22;31826;53.572;10.170;2023-11-21T04:30:56;6.70;99.90
46091;DHT22;31826;53.572;10.170;2023-11-21T04:33:22;6.70;99.90
46091;DHT22;31826;53.572;10.170;2023-11-21T04:35:48;6.70;99.90
46091;DHT22;31826;53.572;10.170;2023-11-21T04:38:14;6.70;99.90
46091;DHT22;31826;53.572;10.170;2023-11-21T04:40:40;6.70;99.90
46091;DHT22;31826;53.572;10.170;2023-11-21T04:43:05;6.70;99.90
46091;DHT22;31826;53.572;10.170;2023-11-21T04:45:31;6.70;99.90
46091;DHT22;31826;53.572;10.170;2023-11-21T04:47:57;6.70;99.90
46091;DHT22;31826;53.572;10.170;2023-11-21T04:50:23;6.70;99.90
46091;DHT22;31826;53.572;10.170;2023-11-21T04:52:48;6.70;99.90
46091;DHT22;31826;53.572;10.170;2023-11-21T04:55:14;6.70;99.90
46091;DHT22;31826;53.572;10.170;2023-11-21T04:57:40;6.70;99.90
46091;DHT22;31826;53.572;10.170;2023-11-21T05:00:09;6.70;99.90
46091;DHT22;31826;53.572;10.170;2023-11-21T05:02:35;6.70;99.90
46091;DHT22;31826;53.572;10.170;2023-11-21T05:05:01;6.70;99.90
46091;DHT22;31826;53.572;10.170;2023-11-21T05:07:27;6.60;99.90
46091;DHT22;31826;53.572;10.170;2023-11-21T05:09:55;6.60;99.90
46091;DHT22;31826;53.572;10.170;2023-11-21T05:12:22;6.60;99.90
46091;DHT22;31826;53.572;10.170;2023-11-21T05:14:49;6.60;99.90
46091;DHT22;31826;53.572;10.170;2023-11-21T05:17:15;6.70;99.90
46091;DHT22;31826;53.572;10.170;2023-11-21T05:19:40;6.70;99.90
46091;DHT22;31826;53.572;10.170;2023-11-21T05:22:06;6.70;99.90
46091;DHT22;31826;53.572;10.170;2023-11-21T05:24:34;6.70;99.90
46091;DHT22;31826;53.572;10.170;2023-11-21T05:27:00;6.60;99.90
46091;DHT22;31826;53.572;10.170;2023-11-21T05:29:26;6.70;99.90
46091;DHT22;31826;53.572;10.170;2023-11-21T05:31:52;6.60;99.90
46091;DHT22;31826;53.572;10.170;2023-11-21T05:34:18;6.60;99.90
46091;DHT22;31826;53.572;10.170;2023-11-21T05:36:46;6.60;99.90
46091;DHT22;31826;53.572;10.170;2023-11-21T05:39:12;6.60;99.90
46091;DHT22;31826;53.572;10.170;2023-11-21T05:41:37;6.50;99.90
46091;DHT22;31826;53.572;10.170;2023-11-21T05:44:03;6.50;99.90
46091;DHT22;31826;53.572;10.170;2023-11-21T05:46:29;6.50;99.90
46091;DHT22;31826;53.572;10.170;2023-11-21T05:48:55;6.60;99.90
46091;DHT22;31826;53.572;10.170;2023-11-21T05:51:20;6.50;99.90
46091;DHT22;31826;53.572;10.170;2023-11-21T05:53:46;6.60;99.90
46091;DHT22;31826;53.572;10.170;2023-11-21T05:56:12;6.50;99.90
46091;DHT22;31826;53.572;10.170;2023-11-21T05:58:39;6.50;99.90
46091;DHT22;31826;53.572;10.170;2023-11-21T06:01:06;6.50;99.90
46091;DHT22;31826;53.572;10.170;2023-11-21T06:03:35;6.50;99.90
46091;DHT22;31826;53.572;10.170;2023-11-21T06:06:01;6.50;99.90
46091;DHT22;31826;53.572;10.170;2023-11-21T06:08:26;6.50;99.90
46091;DHT22;31826;53.572;10.170;2023-11-21T06:10:52;6.50;99.90
46091;DHT22;31826;53.572;10.170;2023-11-21T06:13:18;6.40;99.90
46091;DHT22;31826;53.572;10.170;2023-11-21T06:15:50;6.50;99.90
46091;DHT22;31826;53.572;10.170;2023-11-21T06:18:16;6.50;99.90
46091;DHT22;31826;53.572;10.170;2023-11-21T06:20:45;6.50;99.90
46091;DHT22;31826;53.572;10.170;2023-11-21T06:23:11;6.50;99.90
46091;DHT22;31826;53.572;10.170;2023-11-21T06:25:36;6.50;99.90
46091;DHT22;31826;53.572;10.170;2023-11-21T06:28:02;6.40;99.90
46091;DHT22;31826;53.572;10.170;2023-11-21T06:30:28;6.50;99.90
46091;DHT22;31826;53.572;10.170;2023-11-21T06:32:54;6.50;99.90
46091;DHT22;31826;53.572;10.170;2023-11-21T06:35:21;6.50;99.90
46091;DHT22;31826;53.572;10.170;2023-11-21T06:37:47;6.50;99.90
46091;DHT22;31826;53.572;10.170;2023-11-21T06:40:13;6.50;99.90
46091;DHT22;31826;53.572;10.170;2023-11-21T06:42:44;6.50;99.90
46091;DHT22;31826;53.572;10.170;2023-11-21T06:45:10;6.60;99.90
46091;DHT22;31826;53.572;10.170;2023-11-21T06:47:37;6.60;99.90
46091;DHT22;31826;53.572;10.170;2023-11-21T06:50:03;6.60;99.90
46091;DHT22;31826;53.572;10.170;2023-11-21T06:52:29;6.60;99.90
46091;DHT22;31826;53.572;10.170;2023-11-21T06:54:55;6.60;99.90
46091;DHT22;31826;53.572;10.170;2023-11-21T06:57:23;6.60;99.90
46091;DHT22;31826;53.572;10.170;2023-11-21T06:59:49;6.60;99.90
46091;DHT22;31826;53.572;10.170;2023-11-21T07:02:16;6.60;99.90
46091;DHT22;31826;53.572;10.170;2023-11-21T07:04:44;6.60;99.90
46091;DHT22;31826;53.572;10.170;2023-11-21T07:07:10;6.60;99.90
46091;DHT22;31826;53.572;10.170;2023-11-21T07:09:36;6.60;99.90
46091;DHT22;31826;53.572;10.170;2023-11-21T07:12:02;6.60;99.90
46091;DHT22;31826;53.572;10.170;2023-11-21T07:14:29;6.60;99.90
46091;DHT22;31826;53.572;10.170;2023-11-21T07:16:55;6.60;99.90
46091;DHT22;31826;53.572;10.170;2023-11-21T07:19:20;6.60;99.90
46091;DHT22;31826;53.572;10.170;2023-11-21T07:21:47;6.70;99.90
46091;DHT22;31826;53.572;10.170;2023-11-21T07:24:16;6.60;99.90
46091;DHT22;31826;53.572;10.170;2023-11-21T07:26:41;6.60;99.90
46091;DHT22;31826;53.572;10.170;2023-11-21T07:29:07;6.60;99.90
46091;DHT22;31826;53.572;10.170;2023-11-21T07:31:33;6.60;99.90
46091;DHT22;31826;53.572;10.170;2023-11-21T07:34:02;6.60;99.90
46091;DHT22;31826;53.572;10.170;2023-11-21T07:36:28;6.60;99.90
46091;DHT22;31826;53.572;10.170;2023-11-21T07:38:54;6.60;99.90
46091;DHT22;31826;53.572;10.170;2023-11-21T07:41:19;6.60;99.90
46091;DHT22;31826;53.572;10.170;2023-11-21T07:43:46;6.60;99.90
46091;DHT22;31826;53.572;10.170;2023-11-21T07:46:12;6.50;99.90
46091;DHT22;31826;53.572;10.170;2023-11-21T07:48:39;6.60;99.90
46091;DHT22;31826;53.572;10.170;2023-11-21T07:51:05;6.60;99.90
46091;DHT22;31826;53.572;10.170;2023-11-21T07:53:32;6.60;99.90
46091;DHT22;31826;53.572;10.170;2023-11-21T07:56:02;6.60;99.90
46091;DHT22;31826;53.572;10.170;2023-11-21T07:58:28;6.60;99.90
46091;DHT22;31826;53.572;10.170;2023-11-21T08:00:54;6.60;99.90
46091;DHT22;31826;53.572;10.170;2023-11-21T08:03:19;6.70;99.90
46091;DHT22;31826;53.572;10.170;2023-11-21T08:05:46;6.60;99.90
46091;DHT22;31826;53.572;10.170;2023-11-21T08:08:12;6.60;99.90
46091;DHT22;31826;53.572;10.170;2023-11-21T08:10:38;6.60;99.90
46091;DHT22;31826;53.572;10.170;2023-11-21T08:13:04;6.70;99.90
46091;DHT22;31826;53.572;10.170;2023-11-21T08:15:30;6.70;99.90
46091;DHT22;31826;53.572;10.170;2023-11-21T08:17:59;6.70;99.90
46091;DHT22;31826;53.572;10.170;2023-11-21T08:20:25;6.80;99.90
46091;DHT22;31826;53.572;10.170;2023-11-21T08:22:51;6.80;99.90
46091;DHT22;31826;53.572;10.170;2023-11-21T08:25:18;6.80;99.90
46091;DHT22;31826;53.572;10.170;2023-11-21T08:27:45;6.90;99.90
46091;DHT22;31826;53.572;10.170;2023-11-21T08:30:12;6.80;99.90
46091;DHT22;31826;53.572;10.170;2023-11-21T08:32:39;6.80;99.90
46091;DHT22;31826;53.572;10.170;2023-11-21T08:35:07;6.90;99.90
46091;DHT22;31826;53.572;10.170;2023-11-21T08:37:33;6.80;99.90
46091;DHT22;31826;53.572;10.170;2023-11-21T08:40:03;6.80;99.90
46091;DHT22;31826;53.572;10.170;2023-11-21T08:42:29;6.90;99.90
46091;DHT22;31826;53.572;10.170;2023-11-21T08:44:56;6.80;99.90
46091;DHT22;31826;53.572;10.170;2023-11-21T08:47:23;6.80;99.90
46091;DHT22;31826;53.572;10.170;2023-11-21T08:49:50;6.80;99.90
46091;DHT22;31826;53.572;10.170;2023-11-21T08:52:19;6.80;99.90
46091;DHT22;31826;53.572;10.170;2023-11-21T08:54:49;6.80;99.90
46091;DHT22;31826;53.572;10.170;2023-11-21T08:57:24;6.80;99.90
46091;DHT22;31826;53.572;10.170;2023-11-21T08:59:50;6.80;99.90
46091;DHT22;31826;53.572;10.170;2023-11-21T09:02:26;6.80;99.90
46091;DHT22;31826;53.572;10.170;2023-11-21T09:04:52;6.80;99.90
46091;DHT22;31826;53.572;10.170;2023-11-21T09:07:19;6.80;99.90
46091;DHT22;31826;53.572;10.170;2023-11-21T09:09:49;6.80;99.90
46091;DHT22;31826;53.572;10.170;2023-11-21T09:12:16;6.90;99.90
46091;DHT22;31826;53.572;10.170;2023-11-21T09:14:43;6.80;99.90
46091;DHT22;31826;53.572;10.170;2023-11-21T09:17:10;6.80;99.90
46091;DHT22;31826;53.572;10.170;2023-11-21T09:19:40;6.80;99.90
46091;DHT22;31826;53.572;10.170;2023-11-21T09:22:06;6.90;99.90
46091;DHT22;31826;53.572;10.170;2023-11-21T09:24:33;6.90;99.90
46091;DHT22;31826;53.572;10.170;2023-11-21T09:26:58;6.90;99.90
46091;DHT22;31826;53.572;10.170;2023-11-21T09:29:26;7.00;99.90
46091;DHT22;31826;53.572;10.170;2023-11-21T09:31:52;7.10;99.90
46091;DHT22;31826;53.572;10.170;2023-11-21T09:34:18;7.10;99.90
46091;DHT22;31826;53.572;10.170;2023-11-21T09:36:47;7.10;99.90
46091;DHT22;31826;53.572;10.170;2023-11-21T09:39:13;7.10;99.90
46091;DHT22;31826;53.572;10.170;2023-11-21T09:41:50;7.10;99.90
46091;DHT22;31826;53.572;10.170;2023-11-21T09:44:31;7.20;99.90
46091;DHT22;31826;53.572;10.170;2023-11-21T09:46:59;7.20;99.90
46091;DHT22;31826;53.572;10.170;2023-11-21T09:49:26;7.20;99.90
46091;DHT22;31826;53.572;10.170;2023-11-21T09:51:55;7.20;99.90
46091;DHT22;31826;53.572;10.170;2023-11-21T09:54:23;7.30;99.90
46091;DHT22;31826;53.572;10.170;2023-11-21T09:56:50;7.30;99.90
46091;DHT22;31826;53.572;10.170;2023-11-21T09:59:16;7.20;99.90
46091;DHT22;31826;53.572;10.170;2023-11-21T10:01:42;7.30;99.90
46091;DHT22;31826;53.572;10.170;2023-11-21T10:04:11;7.30;99.90
46091;DHT22;31826;53.572;10.170;2023-11-21T10:06:41;7.30;99.90
46091;DHT22;31826;53.572;10.170;2023-11-21T10:09:10;7.40;99.90
46091;DHT22;31826;53.572;10.170;2023-11-21T10:11:41;7.40;99.90
46091;DHT22;31826;53.572;10.170;2023-11-21T10:14:10;7.40;99.90
46091;DHT22;31826;53.572;10.170;2023-11-21T10:16:37;7.40;99.90
46091;DHT22;31826;53.572;10.170;2023-11-21T10:19:04;7.40;99.90
46091;DHT22;31826;53.572;10.170;2023-11-21T10:21:35;7.50;99.90
46091;DHT22;31826;53.572;10.170;2023-11-21T10:24:01;7.40;99.90
46091;DHT22;31826;53.572;10.170;2023-11-21T10:26:30;7.40;99.90
46091;DHT22;31826;53.572;10.170;2023-11-21T10:29:02;7.50;99.90
46091;DHT22;31826;53.572;10.170;2023-11-21T10:31:31;7.50;99.90
46091;DHT22;31826;53.572;10.170;2023-11-21T10:34:19;7.50;99.90
46091;DHT22;31826;53.572;10.170;2023-11-21T10:36:45;7.60;99.90
46091;DHT22;31826;53.572;10.170;2023-11-21T10:39:18;7.60;99.90
46091;DHT22;31826;53.572;10.170;2023-11-21T10:41:48;7.70;99.90
46091;DHT22;31826;53.572;10.170;2023-11-21T10:44:14;7.60;99.90
46091;DHT22;31826;53.572;10.170;2023-11-21T10:46:49;7.60;99.90
46091;DHT22;31826;53.572;10.170;2023-11-21T10:49:19;7.60;99.90
46091;DHT22;31826;53.572;10.170;2023-11-21T10:51:45;7.50;99.90
46091;DHT22;31826;53.572;10.170;2023-11-21T10:54:11;7.50;99.90
46091;DHT22;31826;53.572;10.170;2023-11-21T10:56:39;7.50;99.90
46091;DHT22;31826;53.572;10.170;2023-11-21T10:59:10;7.50;99.90
46091;DHT22;31826;53.572;10.170;2023-11-21T11:01:45;7.50;99.90
46091;DHT22;31826;53.572;10.170;2023-11-21T11:04:12;7.40;99.90
46091;DHT22;31826;53.572;10.170;2023-11-21T11:06:48;7.40;99.90
46091;DHT22;31826;53.572;10.170;2023-11-21T11:09:17;7.40;99.90
46091;DHT22;31826;53.572;10.170;2023-11-21T11:11:43;7.40;99.90
46091;DHT22;31826;53.572;10.170;2023-11-21T11:14:12;7.40;99.90
46091;DHT22;31826;53.572;10.170;2023-11-21T11:16:39;7.40;99.90
46091;DHT22;31826;53.572;10.170;2023-11-21T11:19:07;7.30;99.90
46091;DHT22;31826;53.572;10.170;2023-11-21T11:35:19;7.50;99.90
46091;DHT22;31826;53.572;10.170;2023-11-21T11:37:50;7.60;99.90
46091;DHT22;31826;53.572;10.170;2023-11-21T11:40:15;7.50;99.90
46091;DHT22;31826;53.572;10.170;2023-11-21T11:42:56;7.50;99.90
46091;DHT22;31826;53.572;10.170;2023-11-21T11:45:31;7.50;99.90
46091;DHT22;31826;53.572;10.170;2023-11-21T11:47:57;7.60;99.90
46091;DHT22;31826;53.572;10.170;2023-11-21T11:50:23;7.60;99.90
46091;DHT22;31826;53.572;10.170;2023-11-21T11:52:52;7.60;99.90
46091;DHT22;31826;53.572;10.170;2023-11-21T11:55:21;7.50;99.90
46091;DHT22;31826;53.572;10.170;2023-11-21T11:57:54;7.50;99.90
46091;DHT22;31826;53.572;10.170;2023-11-21T12:05:20;7.40;99.90
46091;DHT22;31826;53.572;10.170;2023-11-21T12:07:54;7.40;99.90
46091;DHT22;31826;53.572;10.170;2023-11-21T12:10:25;7.40;99.90
46091;DHT22;31826;53.572;10.170;2023-11-21T12:13:01;7.40;99.90
46091;DHT22;31826;53.572;10.170;2023-11-21T12:15:27;7.40;99.90
46091;DHT22;31826;53.572;10.170;2023-11-21T12:17:55;7.40;99.90
46091;DHT22;31826;53.572;10.170;2023-11-21T12:20:22;7.40;99.90
46091;DHT22;31826;53.572;10.170;2023-11-21T12:22:55;7.40;99.90
46091;DHT22;31826;53.572;10.170;2023-11-21T12:25:23;7.40;99.90
46091;DHT22;31826;53.572;10.170;2023-11-21T12:27:51;7.30;99.90
46091;DHT22;31826;53.572;10.170;2023-11-21T12:30:20;7.30;99.90
46091;DHT22;31826;53.572;10.170;2023-11-21T12:32:55;7.30;99.90
46091;DHT22;31826;53.572;10.170;2023-11-21T12:35:23;7.30;99.90
46091;DHT22;31826;53.572;10.170;2023-11-21T12:37:51;7.20;99.90
46091;DHT22;31826;53.572;10.170;2023-11-21T12:40:18;7.20;99.90
46091;DHT22;31826;53.572;10.170;2023-11-21T12:42:45;7.20;99.90
46091;DHT22;31826;53.572;10.170;2023-11-21T12:47:55;7.20;99.90
46091;DHT22;31826;53.572;10.170;2023-11-21T12:50:23;7.20;99.90
46091;DHT22;31826;53.572;10.170;2023-11-21T12:52:52;7.10;99.90
46091;DHT22;31826;53.572;10.170;2023-11-21T12:55:22;7.10;99.90
46091;DHT22;31826;53.572;10.170;2023-11-21T12:57:53;7.10;99.90
46091;DHT22;31826;53.572;10.170;2023-11-21T13:00:28;7.20;99.90
46091;DHT22;31826;53.572;10.170;2023-11-21T13:02:55;7.10;99.90
46091;DHT22;31826;53.572;10.170;2023-11-21T13:05:29;7.10;99.90
46091;DHT22;31826;53.572;10.170;2023-11-21T13:07:57;7.20;99.90
46091;DHT22;31826;53.572;10.170;2023-11-21T13:10:27;7.10;99.90
46091;DHT22;31826;53.572;10.170;2023-11-21T13:12:59;7.10;99.90
46091;DHT22;31826;53.572;10.170;2023-11-21T13:15:27;7.00;99.90
46091;DHT22;31826;53.572;10.170;2023-11-21T13:17:53;7.10;99.90
46091;DHT22;31826;53.572;10.170;2023-11-21T13:20:20;7.00;99.90
46091;DHT22;31826;53.572;10.170;2023-11-21T13:22:53;7.00;99.90
46091;DHT22;31826;53.572;10.170;2023-11-21T13:25:21;7.00;99.90
46091;DHT22;31826;53.572;10.170;2023-11-21T13:27:47;7.00;99.90
46091;DHT22;31826;53.572;10.170;2023-11-21T13:30:14;7.00;99.90
46091;DHT22;31826;53.572;10.170;2023-11-21T13:32:44;6.90;99.90
46091;DHT22;31826;53.572;10.170;2023-11-21T13:35:12;6.90;99.90
46091;DHT22;31826;53.572;10.170;2023-11-21T13:37:48;6.90;99.90
46091;DHT22;31826;53.572;10.170;2023-11-21T13:40:15;6.90;99.90
46091;DHT22;31826;53.572;10.170;2023-11-21T13:42:45;6.90;99.90
46091;DHT22;31826;53.572;10.170;2023-11-21T13:45:11;6.90;99.90
46091;DHT22;31826;53.572;10.170;2023-11-21T13:47:38;6.90;99.90
46091;DHT22;31826;53.572;10.170;2023-11-21T13:50:05;6.80;99.90
46091;DHT22;31826;53.572;10.170;2023-11-21T13:52:43;6.90;99.90
46091;DHT22;31826;53.572;10.170;2023-11-21T13:55:10;6.80;99.90
46091;DHT22;31826;53.572;10.170;2023-11-21T13:57:44;6.80;99.90
46091;DHT22;31826;53.572;10.170;2023-11-21T14:00:13;6.70;99.90
46091;DHT22;31826;53.572;10.170;2023-11-21T14:03:05;6.70;99.90
46091;DHT22;31826;53.572;10.170;2023-11-21T14:05:36;6.70;99.90
46091;DHT22;31826;53.572;10.170;2023-11-21T14:08:02;6.70;99.90
46091;DHT22;31826;53.572;10.170;2023-11-21T14:10:31;6.70;99.90
46091;DHT22;31826;53.572;10.170;2023-11-21T14:13:09;6.60;99.90
46091;DHT22;31826;53.572;10.170;2023-11-21T14:15:39;6.50;99.90
46091;DHT22;31826;53.572;10.170;2023-11-21T14:18:11;6.60;99.90
46091;DHT22;31826;53.572;10.170;2023-11-21T14:20:38;6.60;99.90
46091;DHT22;31826;53.572;10.170;2023-11-21T14:23:05;6.50;99.90
46091;DHT22;31826;53.572;10.170;2023-11-21T14:25:35;6.40;99.90
46091;DHT22;31826;53.572;10.170;2023-11-21T14:28:05;6.40;99.90
46091;DHT22;31826;53.572;10.170;2023-11-21T14:30:32;6.30;99.90
46091;DHT22;31826;53.572;10.170;2023-11-21T14:33:01;6.40;99.90
46091;DHT22;31826;53.572;10.170;2023-11-21T14:35:27;6.30;99.90
46091;DHT22;31826;53.572;10.170;2023-11-21T14:37:53;6.30;99.90
46091;DHT22;31826;53.572;10.170;2023-11-21T14:40:20;6.30;99.90
46091;DHT22;31826;53.572;10.170;2023-11-21T14:42:50;6.20;99.90
46091;DHT22;31826;53.572;10.170;2023-11-21T14:45:19;6.20;99.90
46091;DHT22;31826;53.572;10.170;2023-11-21T14:47:46;6.30;99.90
46091;DHT22;31826;53.572;10.170;2023-11-21T14:50:22;6.30;99.90
46091;DHT22;31826;53.572;10.170;2023-11-21T14:53:06;6.30;99.90
46091;DHT22;31826;53.572;10.170;2023-11-21T14:55:35;6.30;99.90
46091;DHT22;31826;53.572;10.170;2023-11-21T14:58:03;6.30;99.90
46091;DHT22;31826;53.572;10.170;2023-11-21T15:00:29;6.20;99.90
46091;DHT22;31826;53.572;10.170;2023-11-21T15:03:02;6.20;99.90
46091;DHT22;31826;53.572;10.170;2023-11-21T15:05:28;6.20;99.90
46091;DHT22;31826;53.572;10.170;2023-11-21T15:07:54;6.20;99.90
46091;DHT22;31826;53.572;10.170;2023-11-21T15:10:25;6.20;99.90
46091;DHT22;31826;53.572;10.170;2023-11-21T15:13:11;6.10;99.90
46091;DHT22;31826;53.572;10.170;2023-11-21T15:15:37;6.10;99.90
46091;DHT22;31826;53.572;10.170;2023-11-21T15:18:04;6.10;99.90
46091;DHT22;31826;53.572;10.170;2023-11-21T15:20:29;6.10;99.90
46091;DHT22;31826;53.572;10.170;2023-11-21T15:22:56;6.00;99.90
46091;DHT22;31826;53.572;10.170;2023-11-21T15:25:22;6.00;99.90
46091;DHT22;31826;53.572;10.170;2023-11-21T15:27:48;6.00;99.90
46091;DHT22;31826;53.572;10.170;2023-11-21T15:30:16;5.90;99.90
46091;DHT22;31826;53.572;10.170;2023-11-21T15:32:45;5.90;99.90
46091;DHT22;31826;53.572;10.170;2023-11-21T15:35:12;5.90;99.90
46091;DHT22;31826;53.572;10.170;2023-11-21T15:37:40;6.00;99.90
46091;DHT22;31826;53.572;10.170;2023-11-21T15:40:06;5.90;99.90
46091;DHT22;31826;53.572;10.170;2023-11-21T15:42:34;5.90;99.90
46091;DHT22;31826;53.572;10.170;2023-11-21T15:45:02;5.90;99.90
46091;DHT22;31826;53.572;10.170;2023-11-21T15:47:30;5.90;99.90
46091;DHT22;31826;53.572;10.170;2023-11-21T15:49:56;5.90;99.90
46091;DHT22;31826;53.572;10.170;2023-11-21T15:52:21;5.80;99.90
46091;DHT22;31826;53.572;10.170;2023-11-21T15:54:47;5.90;99.90